Time;durP1;ratioP1;P1;durP2;ratioP2;P2;SDS_P1;SDS_P2;PMS_P1;PMS_P2;Temp;Humidity;BMP_temperature;BMP_pressure;BME280_temperature;BME280_humidity;BME280_pressure;Samples;Min_cycle;Max_cycle;Signal;HPM_P1;HPM_P2
2022/12/02 00:00:20;;;;;;;9.17;7.80;;;4.90;99.90;;;;;;4937946;29;20573;-86
2022/12/02 00:02:47;;;;;;;9.33;7.73;;;5.00;99.90;;;;;;4948569;29;20198;-84
2022/12/02 00:05:17;;;;;;;10.97;7.93;;;5.00;99.90;;;;;;4932275;29;20222;-85
2022/12/02 00:07:44;;;;;;;10.13;8.20;;;5.00;99.90;;;;;;4939089;29;20168;-87
2022/12/02 00:10:32;;;;;;;10.13;8.07;;;5.00;99.90;;;;;;4936614;29;20192;-85
2022/12/02 00:13:25;;;;;;;10.77;8.00;;;5.10;99.90;;;;;;4937266;29;20210;-86
2022/12/02 00:15:58;;;;;;;12.93;8.23;;;5.10;99.90;;;;;;4938350;29;20187;-86
2022/12/02 00:18:24;;;;;;;9.93;8.03;;;5.10;99.90;;;;;;4938336;29;20164;-84
2022/12/02 00:20:50;;;;;;;10.37;8.80;;;5.10;99.90;;;;;;4939015;29;20179;-86
2022/12/02 00:23:16;;;;;;;12.73;9.33;;;5.10;99.90;;;;;;4939235;29;20186;-85
2022/12/02 00:25:49;;;;;;;14.00;11.03;;;5.20;99.90;;;;;;4938017;29;20253;-86
2022/12/02 00:28:15;;;;;;;15.60;10.90;;;5.20;99.90;;;;;;4937876;29;20620;-86
2022/12/02 00:30:41;;;;;;;17.43;12.27;;;5.20;99.90;;;;;;4936988;29;20186;-86
2022/12/02 00:33:07;;;;;;;19.60;13.17;;;5.20;99.90;;;;;;4936777;29;20206;-85
2022/12/02 00:35:34;;;;;;;16.67;12.53;;;5.30;99.90;;;;;;4936968;29;20190;-82
2022/12/02 00:38:00;;;;;;;17.30;13.40;;;5.20;99.90;;;;;;4937005;29;20183;-85
2022/12/02 00:40:26;;;;;;;22.03;13.17;;;5.20;99.90;;;;;;4936827;29;20297;-83
2022/12/02 00:42:52;;;;;;;16.80;13.00;;;5.30;99.90;;;;;;4936729;29;20644;-82
2022/12/02 00:48:02;;;;;;;18.67;12.63;;;5.30;99.90;;;;;;4936963;29;20213;-81
2022/12/02 00:50:29;;;;;;;16.33;12.97;;;5.20;99.90;;;;;;4937007;29;20202;-85
2022/12/02 00:52:55;;;;;;;18.20;13.53;;;5.20;99.90;;;;;;4936318;29;20200;-79
2022/12/02 00:55:21;;;;;;;17.30;13.40;;;5.30;99.90;;;;;;4919875;29;20225;-85
2022/12/02 00:57:46;;;;;;;17.73;12.53;;;5.20;99.90;;;;;;4920560;29;20212;-81
2022/12/02 01:00:13;;;;;;;18.07;12.70;;;5.20;99.90;;;;;;4939348;29;20531;-80
2022/12/02 01:02:38;;;;;;;17.23;12.83;;;5.20;99.90;;;;;;4937585;29;20183;-84
2022/12/02 01:05:05;;;;;;;16.77;12.80;;;5.20;99.90;;;;;;4936875;29;20247;-86
2022/12/02 01:07:31;;;;;;;16.77;12.70;;;5.20;99.90;;;;;;4919505;29;20320;-86
2022/12/02 01:09:57;;;;;;;17.47;13.10;;;5.20;99.90;;;;;;4919384;29;20539;-86
2022/12/02 01:12:23;;;;;;;22.20;14.87;;;5.30;99.90;;;;;;4919780;29;20211;-86
2022/12/02 01:14:49;;;;;;;18.40;14.07;;;5.20;99.90;;;;;;4938430;29;20190;-86
2022/12/02 01:17:14;;;;;;;20.67;14.13;;;5.20;99.90;;;;;;4921523;29;20180;-83
2022/12/02 01:19:40;;;;;;;22.23;14.53;;;5.20;99.90;;;;;;4922203;29;20186;-86
2022/12/02 01:22:09;;;;;;;20.10;13.67;;;5.20;99.90;;;;;;4944298;29;20664;-84
2022/12/02 01:24:35;;;;;;;22.07;14.57;;;5.30;99.90;;;;;;4931920;29;20188;-84
2022/12/02 01:27:00;;;;;;;17.53;13.07;;;5.30;99.90;;;;;;4940137;29;20180;-85
2022/12/02 01:29:26;;;;;;;22.40;14.23;;;5.30;99.90;;;;;;4945658;29;20181;-86
2022/12/02 01:31:54;;;;;;;22.27;14.33;;;5.20;99.90;;;;;;4949918;29;20187;-84
2022/12/02 01:34:20;;;;;;;19.97;13.93;;;5.20;99.90;;;;;;4923179;29;20220;-84
2022/12/02 01:36:46;;;;;;;18.80;13.60;;;5.20;99.90;;;;;;4919898;29;20547;-87
2022/12/02 01:39:11;;;;;;;20.83;13.60;;;5.30;99.90;;;;;;4936500;29;20301;-86
2022/12/02 01:41:37;;;;;;;23.70;14.37;;;5.20;99.90;;;;;;4919792;29;20191;-88
2022/12/02 01:44:03;;;;;;;21.60;13.33;;;5.20;99.90;;;;;;4943936;29;20180;-85
2022/12/02 01:46:29;;;;;;;22.53;14.27;;;5.20;99.90;;;;;;4936810;29;20644;-86
2022/12/02 01:48:55;;;;;;;20.40;13.47;;;5.20;99.90;;;;;;4936382;29;20187;-86
2022/12/02 01:51:21;;;;;;;21.53;12.40;;;5.20;99.90;;;;;;4936769;29;20232;-85
2022/12/02 01:53:46;;;;;;;21.40;13.87;;;5.20;99.90;;;;;;4937439;29;20443;-86
2022/12/02 01:56:12;;;;;;;17.73;12.37;;;5.20;99.90;;;;;;4938456;29;20179;-87
2022/12/02 01:58:38;;;;;;;16.77;12.27;;;5.20;99.90;;;;;;4938502;29;20181;-84
2022/12/02 02:01:31;;;;;;;22.23;13.63;;;5.20;99.90;;;;;;4936450;29;20250;-86
2022/12/02 02:03:58;;;;;;;18.53;12.87;;;5.20;99.90;;;;;;4919058;29;20200;-84
2022/12/02 02:06:26;;;;;;;19.10;12.90;;;5.20;99.90;;;;;;4936033;29;20172;-87
2022/12/02 02:08:52;;;;;;;19.00;12.77;;;5.20;99.90;;;;;;4936083;29;20193;-86
2022/12/02 02:11:18;;;;;;;17.93;12.03;;;5.10;99.90;;;;;;4920012;29;20236;-85
2022/12/02 02:13:45;;;;;;;19.30;12.07;;;5.20;99.90;;;;;;4920565;29;20209;-85
2022/12/02 02:16:12;;;;;;;19.33;12.83;;;5.20;99.90;;;;;;4920452;29;20230;-87
2022/12/02 02:18:38;;;;;;;15.90;11.63;;;5.20;99.90;;;;;;4935737;29;20172;-85
2022/12/02 02:21:07;;;;;;;15.87;12.37;;;5.10;99.90;;;;;;4935761;29;20571;-87
2022/12/02 02:23:33;;;;;;;19.00;12.53;;;5.20;99.90;;;;;;4935967;29;20242;-86
2022/12/02 02:25:59;;;;;;;17.00;11.37;;;5.20;99.90;;;;;;4936122;29;20176;-84
2022/12/02 02:28:25;;;;;;;15.07;10.83;;;5.20;99.90;;;;;;4938974;29;20176;-85
2022/12/02 02:30:54;;;;;;;20.57;11.97;;;5.20;99.90;;;;;;4937036;29;20176;-79
2022/12/02 02:33:21;;;;;;;17.17;11.77;;;5.20;99.90;;;;;;4920718;29;20215;-82
2022/12/02 02:35:47;;;;;;;16.67;11.67;;;5.20;99.90;;;;;;4940532;29;20199;-82
2022/12/02 02:38:16;;;;;;;19.10;12.93;;;5.10;99.90;;;;;;4928132;29;20327;-82
2022/12/02 02:40:43;;;;;;;19.73;12.00;;;5.20;99.90;;;;;;4938779;29;20176;-80
2022/12/02 02:43:10;;;;;;;17.63;12.00;;;5.20;99.90;;;;;;4938672;29;20173;-79
2022/12/02 02:45:38;;;;;;;19.07;12.30;;;5.10;99.90;;;;;;4938800;29;20256;-79
2022/12/02 02:48:07;;;;;;;17.63;11.47;;;5.20;99.90;;;;;;4939754;29;20664;-83
2022/12/02 02:50:35;;;;;;;18.07;11.77;;;5.20;99.90;;;;;;4938971;29;20187;-86
2022/12/02 02:53:02;;;;;;;16.67;11.37;;;5.20;99.90;;;;;;4922531;29;20302;-84
2022/12/02 02:55:30;;;;;;;16.93;10.87;;;5.20;99.90;;;;;;4940669;29;20187;-86
2022/12/02 02:58:06;;;;;;;16.13;12.13;;;5.20;99.90;;;;;;4945967;29;20207;-84
2022/12/02 03:00:32;;;;;;;18.20;12.30;;;5.10;99.90;;;;;;4924671;29;20590;-86
2022/12/02 03:02:58;;;;;;;15.30;11.70;;;5.10;99.90;;;;;;4921719;29;20180;-85
2022/12/02 03:05:24;;;;;;;17.67;11.43;;;5.10;99.90;;;;;;4938827;29;20185;-87
2022/12/02 03:07:50;;;;;;;18.97;11.97;;;5.10;99.90;;;;;;4938833;29;20214;-87
2022/12/02 03:10:17;;;;;;;16.27;11.73;;;5.10;99.90;;;;;;4939592;29;20176;-84
2022/12/02 03:12:45;;;;;;;19.07;12.50;;;5.10;99.90;;;;;;4951611;29;20205;-84
2022/12/02 03:15:23;;;;;;;20.47;12.37;;;5.10;99.90;;;;;;4945782;29;20649;-84
2022/12/02 03:17:50;;;;;;;19.50;12.00;;;5.10;99.90;;;;;;4960550;28;20190;-87
2022/12/02 03:20:16;;;;;;;17.87;12.43;;;5.10;99.90;;;;;;4922880;29;20592;-84
2022/12/02 03:22:42;;;;;;;17.47;12.53;;;5.10;99.90;;;;;;4938863;29;20263;-84
2022/12/02 03:25:09;;;;;;;17.37;12.03;;;5.20;99.90;;;;;;4941106;29;20200;-85
2022/12/02 03:27:35;;;;;;;16.20;11.33;;;5.20;99.90;;;;;;4940872;29;20640;-83
2022/12/02 03:30:01;;;;;;;17.87;11.93;;;5.20;99.90;;;;;;4922382;29;20180;-85
2022/12/02 03:32:27;;;;;;;18.37;11.67;;;5.20;99.90;;;;;;4940438;29;20571;-87
2022/12/02 03:34:53;;;;;;;17.97;12.27;;;5.20;99.90;;;;;;4940288;29;20521;-87
2022/12/02 03:37:19;;;;;;;18.00;11.53;;;5.20;99.90;;;;;;4936674;29;20180;-79
2022/12/02 03:39:45;;;;;;;19.53;12.67;;;5.20;99.90;;;;;;4923692;29;20185;-83
2022/12/02 03:42:11;;;;;;;23.57;13.20;;;5.20;99.90;;;;;;4938502;29;20173;-83
2022/12/02 03:44:37;;;;;;;21.50;13.20;;;5.10;99.90;;;;;;4944709;29;20179;-85
2022/12/02 03:47:03;;;;;;;18.03;12.20;;;5.20;99.90;;;;;;4938345;29;20236;-83
2022/12/02 03:49:32;;;;;;;19.57;12.43;;;5.20;99.90;;;;;;4936362;29;20190;-85
2022/12/02 03:51:58;;;;;;;19.03;13.03;;;5.20;99.90;;;;;;4937010;29;20192;-84
2022/12/02 03:54:24;;;;;;;20.37;13.30;;;5.20;99.90;;;;;;4939540;29;20216;-85
2022/12/02 03:56:50;;;;;;;18.17;11.97;;;5.20;99.90;;;;;;4937814;29;20208;-85
2022/12/02 03:59:26;;;;;;;20.43;12.67;;;5.10;99.90;;;;;;4940093;29;20191;-86
2022/12/02 04:01:52;;;;;;;17.97;12.80;;;5.10;99.90;;;;;;4938591;29;20180;-79
2022/12/02 04:04:18;;;;;;;19.37;12.87;;;5.10;99.90;;;;;;4936159;29;20663;-81
2022/12/02 04:06:44;;;;;;;18.33;11.83;;;5.10;99.90;;;;;;4919387;29;20177;-86
2022/12/02 04:09:10;;;;;;;18.90;12.90;;;5.00;99.90;;;;;;4936893;29;20694;-87
2022/12/02 04:11:36;;;;;;;17.77;12.03;;;5.10;99.90;;;;;;4936907;29;20203;-85
2022/12/02 04:14:01;;;;;;;17.93;12.83;;;5.10;99.90;;;;;;4936383;29;20214;-83
2022/12/02 04:16:27;;;;;;;18.97;11.70;;;5.10;99.90;;;;;;4949286;29;20176;-85
2022/12/02 04:18:53;;;;;;;16.30;11.03;;;5.20;99.90;;;;;;4938241;29;20230;-86
2022/12/02 04:21:20;;;;;;;17.30;12.10;;;5.20;99.90;;;;;;4922018;29;20176;-79
2022/12/02 04:23:47;;;;;;;16.97;11.67;;;5.10;99.90;;;;;;4930833;29;20185;-81
2022/12/02 04:26:13;;;;;;;14.30;11.07;;;5.10;99.90;;;;;;4941537;29;20269;-80
2022/12/02 04:28:38;;;;;;;16.27;11.27;;;5.10;99.90;;;;;;4925847;29;20212;-80
2022/12/02 04:31:04;;;;;;;17.53;11.50;;;5.10;99.90;;;;;;4938279;29;20171;-78
2022/12/02 04:33:30;;;;;;;18.07;11.43;;;5.10;99.90;;;;;;4936504;29;20624;-81
2022/12/02 04:35:56;;;;;;;17.37;11.13;;;5.00;99.90;;;;;;4922058;29;20644;-84
2022/12/02 04:38:23;;;;;;;15.20;11.30;;;4.90;99.90;;;;;;4939232;29;20650;-86
2022/12/02 04:40:51;;;;;;;15.63;11.50;;;5.00;99.90;;;;;;4943402;29;20176;-85
2022/12/02 04:43:17;;;;;;;16.37;11.57;;;5.00;99.90;;;;;;4939632;29;20171;-83
2022/12/02 04:45:43;;;;;;;16.00;12.27;;;5.00;99.90;;;;;;4937313;29;20176;-88
2022/12/02 04:48:09;;;;;;;15.33;11.50;;;5.10;99.90;;;;;;4937060;29;20255;-87
2022/12/02 04:50:34;;;;;;;17.60;11.97;;;5.00;99.90;;;;;;4936861;29;20180;-86
2022/12/02 04:53:00;;;;;;;15.57;11.33;;;5.00;99.90;;;;;;4937156;29;20221;-85
2022/12/02 04:55:26;;;;;;;14.77;11.00;;;5.00;99.90;;;;;;4920958;29;20311;-85
2022/12/02 04:57:52;;;;;;;15.07;10.27;;;5.00;99.90;;;;;;4950578;29;20247;-84
2022/12/02 05:00:18;;;;;;;18.80;11.43;;;5.00;99.90;;;;;;4928441;29;20245;-85
2022/12/02 05:02:44;;;;;;;13.67;11.03;;;5.00;99.90;;;;;;4939868;29;20183;-84
2022/12/02 05:05:10;;;;;;;15.73;11.00;;;5.00;99.90;;;;;;4923576;29;20185;-84
2022/12/02 05:07:36;;;;;;;14.57;10.97;;;5.00;99.90;;;;;;4954929;29;20180;-83
2022/12/02 05:10:02;;;;;;;15.37;10.30;;;5.00;99.90;;;;;;4946715;29;20191;-84
2022/12/02 05:12:28;;;;;;;14.10;10.23;;;5.00;99.90;;;;;;4943774;29;20279;-84
2022/12/02 05:14:54;;;;;;;13.93;10.40;;;5.00;99.90;;;;;;4937145;29;20632;-86
2022/12/02 05:17:20;;;;;;;16.97;11.57;;;4.90;99.90;;;;;;4936779;29;20234;-85
2022/12/02 05:19:46;;;;;;;15.90;11.10;;;4.90;99.90;;;;;;4936341;29;20182;-85
2022/12/02 05:22:12;;;;;;;15.27;10.73;;;4.90;99.90;;;;;;4936466;29;20188;-85
2022/12/02 05:24:39;;;;;;;16.27;10.53;;;4.90;99.90;;;;;;4935936;29;20289;-87
2022/12/02 05:27:05;;;;;;;15.53;10.80;;;4.90;99.90;;;;;;4936004;29;20231;-86
2022/12/02 05:29:31;;;;;;;16.67;11.20;;;4.80;99.90;;;;;;4936072;29;20180;-86
2022/12/02 05:31:56;;;;;;;15.03;10.90;;;4.90;99.90;;;;;;4937136;29;20234;-85
2022/12/02 05:34:22;;;;;;;14.47;10.43;;;4.90;99.90;;;;;;4937889;29;20216;-87
2022/12/02 05:36:48;;;;;;;16.57;11.10;;;4.90;99.90;;;;;;4936832;29;20188;-84
2022/12/02 05:39:14;;;;;;;17.20;11.10;;;4.80;99.90;;;;;;4919088;29;20197;-84
2022/12/02 05:41:40;;;;;;;14.17;10.50;;;4.80;99.90;;;;;;4938082;29;20179;-84
2022/12/02 05:44:26;;;;;;;16.87;12.13;;;4.80;99.90;;;;;;4947930;29;20185;-84
2022/12/02 05:46:57;;;;;;;15.43;10.80;;;4.70;99.90;;;;;;4939380;29;20552;-84
2022/12/02 05:49:27;;;;;;;15.13;11.40;;;4.80;99.90;;;;;;4939009;29;20169;-84
2022/12/02 05:51:58;;;;;;;17.73;11.83;;;4.70;99.90;;;;;;4920576;29;20176;-85
2022/12/02 05:54:25;;;;;;;17.37;11.30;;;4.70;99.90;;;;;;4947738;29;20226;-85
2022/12/02 05:56:54;;;;;;;17.57;11.30;;;4.80;99.90;;;;;;4944314;29;20593;-84
2022/12/02 05:59:20;;;;;;;17.27;11.57;;;4.70;99.90;;;;;;4936827;29;20180;-87
2022/12/02 06:01:53;;;;;;;17.63;11.13;;;4.80;99.90;;;;;;4897407;29;20240;-85
2022/12/02 06:04:23;;;;;;;17.53;11.67;;;4.80;99.90;;;;;;4898000;29;20176;-83
2022/12/02 06:06:52;;;;;;;19.70;12.20;;;4.80;99.90;;;;;;4899860;29;20714;-86
2022/12/02 06:09:22;;;;;;;17.47;12.13;;;4.70;99.90;;;;;;4905732;29;20186;-84
2022/12/02 06:11:48;;;;;;;20.27;12.03;;;4.70;99.90;;;;;;4910649;29;20172;-84
2022/12/02 06:14:27;;;;;;;17.00;11.90;;;4.70;99.90;;;;;;4905923;29;20275;-80
2022/12/02 06:17:00;;;;;;;19.77;11.90;;;4.70;99.90;;;;;;4903854;29;20533;-81
2022/12/02 06:19:45;;;;;;;17.87;12.13;;;4.60;99.90;;;;;;4902701;29;20172;-85
2022/12/02 06:22:17;;;;;;;17.40;11.73;;;4.60;99.90;;;;;;4901983;29;20178;-83
2022/12/02 06:24:43;;;;;;;16.13;10.73;;;4.60;99.90;;;;;;4900750;29;20209;-85
2022/12/02 06:27:13;;;;;;;16.83;11.77;;;4.50;99.90;;;;;;4910818;29;20200;-85
2022/12/02 06:29:46;;;;;;;20.20;12.43;;;4.40;99.90;;;;;;4908646;29;20240;-86
2022/12/02 06:32:17;;;;;;;16.97;11.80;;;4.50;99.90;;;;;;4902258;29;20167;-86
2022/12/02 06:34:44;;;;;;;19.80;12.67;;;4.40;99.90;;;;;;4902150;29;20194;-86
2022/12/02 06:37:22;;;;;;;21.53;14.57;;;4.50;99.90;;;;;;4901345;29;20194;-84
2022/12/02 06:39:54;;;;;;;16.80;11.93;;;4.50;99.90;;;;;;4901640;29;20259;-85
2022/12/02 06:42:35;;;;;;;18.33;11.97;;;4.50;99.90;;;;;;4905004;29;20305;-82
2022/12/02 06:45:26;;;;;;;13.93;9.17;;;4.40;99.90;;;;;;4902757;29;20212;-83
2022/12/02 06:48:27;;;;;;;17.07;11.67;;;4.50;99.90;;;;;;4902798;29;20516;-84
2022/12/02 06:50:56;;;;;;;22.40;13.83;;;4.40;99.90;;;;;;4903196;29;20564;-85
2022/12/02 06:53:32;;;;;;;26.23;16.00;;;4.30;99.90;;;;;;4904215;29;20663;-84
2022/12/02 06:56:05;;;;;;;28.50;15.73;;;4.30;99.90;;;;;;4919285;29;20221;-82
2022/12/02 06:58:41;;;;;;;29.33;16.57;;;4.20;99.90;;;;;;4906592;29;20185;-84
2022/12/02 07:01:07;;;;;;;30.10;17.03;;;4.10;99.90;;;;;;4929738;29;20269;-84
2022/12/02 07:03:35;;;;;;;27.90;16.13;;;4.00;99.90;;;;;;4938785;29;20212;-86
2022/12/02 07:06:24;;;;;;;28.40;16.87;;;4.00;99.90;;;;;;4939467;29;20177;-84
2022/12/02 07:08:53;;;;;;;28.80;16.57;;;4.00;99.90;;;;;;4942680;29;20251;-85
2022/12/02 07:11:54;;;;;;;28.53;16.07;;;4.00;99.90;;;;;;4927178;29;20199;-84
2022/12/02 07:14:48;;;;;;;31.47;17.03;;;4.00;99.90;;;;;;4926570;29;20211;-84
2022/12/02 07:17:35;;;;;;;30.80;16.17;;;4.00;99.90;;;;;;4940522;29;20184;-82
2022/12/02 07:20:10;;;;;;;33.00;16.83;;;3.90;99.90;;;;;;4938649;29;20255;-85
2022/12/02 07:22:46;;;;;;;31.00;16.77;;;3.90;99.90;;;;;;4951886;29;20232;-82
2022/12/02 07:25:15;;;;;;;28.13;16.70;;;3.80;99.90;;;;;;4940197;29;20191;-85
2022/12/02 07:27:46;;;;;;;28.37;17.57;;;3.80;99.90;;;;;;4938272;29;20209;-84
2022/12/02 07:30:31;;;;;;;33.27;16.43;;;3.80;99.90;;;;;;4938859;29;20219;-83
2022/12/02 07:32:58;;;;;;;30.07;16.97;;;3.80;99.90;;;;;;4921083;29;20235;-83
2022/12/02 07:35:24;;;;;;;32.23;18.17;;;3.80;99.90;;;;;;4937961;29;20539;-82
2022/12/02 07:37:50;;;;;;;29.53;17.03;;;3.90;99.90;;;;;;4938016;29;20515;-84
2022/12/02 07:40:18;;;;;;;29.70;16.43;;;4.00;99.90;;;;;;4940323;29;20175;-82
2022/12/02 07:42:44;;;;;;;29.77;16.13;;;3.90;99.90;;;;;;4942290;29;20208;-81
2022/12/02 07:45:15;;;;;;;29.23;16.83;;;3.90;99.90;;;;;;4940035;29;20637;-81
2022/12/02 07:47:41;;;;;;;25.60;16.43;;;4.00;99.90;;;;;;4939348;29;20219;-84
2022/12/02 07:50:09;;;;;;;29.50;16.87;;;3.90;99.90;;;;;;4939178;29;20184;-84
2022/12/02 07:52:35;;;;;;;28.30;17.80;;;3.90;99.90;;;;;;4938570;29;20207;-82
2022/12/02 07:55:01;;;;;;;26.73;16.27;;;3.80;99.90;;;;;;4943400;29;20183;-82
2022/12/02 07:57:27;;;;;;;25.07;16.53;;;3.90;99.90;;;;;;4948894;29;20187;-82
2022/12/02 07:59:54;;;;;;;27.77;16.50;;;3.90;99.90;;;;;;4946043;29;20239;-82
2022/12/02 08:02:20;;;;;;;24.60;15.27;;;3.90;99.90;;;;;;4939104;29;20218;-84
2022/12/02 08:04:46;;;;;;;26.83;16.47;;;3.90;99.90;;;;;;4938223;29;20194;-81
2022/12/02 08:07:12;;;;;;;27.80;16.60;;;4.00;99.90;;;;;;4920545;29;20180;-83
2022/12/02 08:09:38;;;;;;;25.87;15.33;;;4.00;99.90;;;;;;4937894;29;20182;-83
2022/12/02 08:12:05;;;;;;;27.70;15.53;;;4.00;99.90;;;;;;4938243;29;20180;-85
2022/12/02 08:14:30;;;;;;;28.70;16.30;;;4.00;99.90;;;;;;4937829;29;20262;-85
2022/12/02 08:16:56;;;;;;;27.40;16.20;;;4.00;99.90;;;;;;4938076;29;20258;-83
2022/12/02 08:19:22;;;;;;;28.00;15.27;;;4.00;99.90;;;;;;4938422;29;20183;-85
2022/12/02 08:21:54;;;;;;;26.17;16.10;;;4.00;99.90;;;;;;4941583;29;20176;-82
2022/12/02 08:24:20;;;;;;;26.90;16.07;;;4.00;99.90;;;;;;4923100;29;20185;-84
2022/12/02 08:26:46;;;;;;;26.73;15.93;;;4.00;99.90;;;;;;4938623;29;20176;-82
2022/12/02 08:29:11;;;;;;;28.13;15.93;;;4.10;99.90;;;;;;4919904;29;20184;-83
2022/12/02 08:31:37;;;;;;;26.73;15.87;;;4.20;99.90;;;;;;4937469;29;20661;-84
2022/12/02 08:34:03;;;;;;;29.47;17.13;;;4.20;99.90;;;;;;4921176;29;20239;-84
2022/12/02 08:36:31;;;;;;;26.83;16.80;;;4.20;99.90;;;;;;4938487;29;20262;-83
2022/12/02 08:38:57;;;;;;;27.13;16.00;;;4.20;99.90;;;;;;4940707;29;20200;-85
2022/12/02 08:41:23;;;;;;;27.30;16.60;;;4.20;99.90;;;;;;4934739;29;20179;-85
2022/12/02 08:43:48;;;;;;;30.63;17.33;;;4.30;99.90;;;;;;4948847;29;20191;-82
2022/12/02 08:46:15;;;;;;;27.87;17.17;;;4.30;99.90;;;;;;4947139;29;20175;-85
2022/12/02 08:48:40;;;;;;;31.40;17.57;;;4.30;99.90;;;;;;4947827;29;20172;-84
2022/12/02 08:51:07;;;;;;;29.17;16.73;;;4.40;99.90;;;;;;4943385;29;20176;-85
2022/12/02 08:53:33;;;;;;;27.57;16.90;;;4.50;99.90;;;;;;4937247;29;20675;-84
2022/12/02 08:55:58;;;;;;;29.13;17.33;;;4.50;99.90;;;;;;4938668;29;20202;-83
2022/12/02 08:58:24;;;;;;;27.63;17.10;;;4.50;99.90;;;;;;4937813;29;20542;-85
2022/12/02 09:00:50;;;;;;;28.63;16.03;;;4.60;99.90;;;;;;4939471;29;20560;-84
2022/12/02 09:03:16;;;;;;;27.47;16.40;;;4.70;99.90;;;;;;4937312;29;20261;-85
2022/12/02 09:05:42;;;;;;;30.03;16.70;;;4.80;99.90;;;;;;4936714;29;20223;-85
2022/12/02 09:08:08;;;;;;;32.77;17.90;;;4.80;99.90;;;;;;4919758;29;20192;-83
2022/12/02 09:10:34;;;;;;;30.40;17.40;;;4.80;99.90;;;;;;4936706;29;20175;-85
2022/12/02 09:13:00;;;;;;;27.47;17.40;;;4.90;99.90;;;;;;4936365;29;20619;-84
2022/12/02 09:15:26;;;;;;;31.07;17.30;;;4.90;99.90;;;;;;4937979;29;20230;-84
2022/12/02 09:17:52;;;;;;;27.37;17.10;;;4.90;99.90;;;;;;4936537;29;20180;-82
2022/12/02 09:20:18;;;;;;;30.87;16.93;;;5.00;99.90;;;;;;4919131;29;20187;-83
2022/12/02 09:22:46;;;;;;;32.03;18.07;;;5.00;99.90;;;;;;4936176;29;20178;-86
2022/12/02 09:25:13;;;;;;;31.37;17.93;;;4.90;99.90;;;;;;4936730;29;20259;-83
2022/12/02 09:27:39;;;;;;;28.20;17.63;;;4.90;99.90;;;;;;4939248;29;20607;-84
2022/12/02 09:30:06;;;;;;;29.07;18.27;;;5.00;99.90;;;;;;4936867;29;20274;-84
2022/12/02 09:32:33;;;;;;;28.93;17.90;;;4.90;99.90;;;;;;4937162;29;20181;-83
2022/12/02 09:34:59;;;;;;;30.23;17.80;;;4.90;99.90;;;;;;4922558;29;20575;-83
2022/12/02 09:37:24;;;;;;;32.17;19.43;;;4.80;99.90;;;;;;4936289;29;20178;-83
2022/12/02 09:39:50;;;;;;;35.30;19.93;;;4.80;99.90;;;;;;4919236;29;20239;-82
2022/12/02 09:42:17;;;;;;;33.37;19.97;;;4.80;99.90;;;;;;4951901;29;20196;-85
2022/12/02 09:44:43;;;;;;;33.17;18.53;;;4.80;99.90;;;;;;4944173;29;20179;-84
2022/12/02 09:47:10;;;;;;;30.30;18.13;;;4.80;99.90;;;;;;4940005;29;20178;-85
2022/12/02 09:49:36;;;;;;;29.60;17.23;;;4.90;99.90;;;;;;4941516;29;20206;-85
2022/12/02 09:52:05;;;;;;;31.57;19.10;;;4.90;99.90;;;;;;4924896;29;20175;-83
2022/12/02 09:54:32;;;;;;;29.57;17.57;;;4.80;99.90;;;;;;4922273;29;20214;-83
2022/12/02 09:56:58;;;;;;;32.10;17.93;;;4.80;99.90;;;;;;4937434;29;20176;-83
2022/12/02 09:59:24;;;;;;;30.33;17.37;;;4.70;99.90;;;;;;4935969;29;20644;-85
2022/12/02 10:01:49;;;;;;;32.40;18.73;;;4.80;99.90;;;;;;4918841;29;20188;-83
2022/12/02 10:04:19;;;;;;;28.47;17.77;;;4.80;99.90;;;;;;4936452;29;20640;-84
2022/12/02 10:06:45;;;;;;;30.87;18.30;;;4.80;99.90;;;;;;4927874;29;20545;-84
2022/12/02 10:09:22;;;;;;;29.47;17.83;;;4.80;99.90;;;;;;4939228;29;20184;-83
2022/12/02 10:11:47;;;;;;;26.73;16.37;;;4.90;99.90;;;;;;4936796;29;20526;-83
2022/12/02 10:14:14;;;;;;;29.30;17.10;;;4.80;99.90;;;;;;4937070;29;20209;-82
2022/12/02 10:16:40;;;;;;;28.47;16.83;;;4.80;99.90;;;;;;4928320;29;20236;-84
2022/12/02 10:19:09;;;;;;;28.47;17.43;;;4.80;99.90;;;;;;4942447;29;20176;-83
2022/12/02 10:21:35;;;;;;;26.53;16.17;;;4.90;99.90;;;;;;4936847;29;20212;-84
2022/12/02 10:24:03;;;;;;;27.27;16.43;;;4.90;99.90;;;;;;4937773;29;20182;-85
2022/12/02 10:26:43;;;;;;;25.80;15.60;;;4.80;99.90;;;;;;4938249;29;20176;-84
2022/12/02 10:29:34;;;;;;;26.57;16.47;;;4.90;99.90;;;;;;4938260;29;20179;-84
2022/12/02 10:32:06;;;;;;;27.73;16.77;;;4.90;99.90;;;;;;4945831;29;20187;-82
2022/12/02 10:34:34;;;;;;;29.90;16.93;;;4.90;99.90;;;;;;4948658;29;20212;-80
2022/12/02 10:37:22;;;;;;;28.57;18.10;;;5.00;99.90;;;;;;4924852;29;20242;-83
2022/12/02 10:40:04;;;;;;;27.83;16.60;;;4.90;99.90;;;;;;4937182;29;20180;-82
2022/12/02 10:42:30;;;;;;;28.87;16.60;;;4.90;99.90;;;;;;4919413;29;20185;-82
2022/12/02 10:45:19;;;;;;;30.07;18.70;;;4.80;99.90;;;;;;4935660;29;20632;-82
2022/12/02 10:47:46;;;;;;;25.63;16.10;;;4.90;99.90;;;;;;4936746;29;20176;-82
2022/12/02 10:50:21;;;;;;;26.73;16.67;;;4.90;99.90;;;;;;4939026;29;20168;-81
2022/12/02 10:52:58;;;;;;;29.17;17.40;;;5.00;99.90;;;;;;4920486;29;20207;-81
2022/12/02 10:55:25;;;;;;;25.93;16.47;;;5.00;99.90;;;;;;4939014;29;20171;-82
2022/12/02 10:57:51;;;;;;;29.00;17.03;;;5.00;99.90;;;;;;4939091;29;20172;-85
2022/12/02 11:00:20;;;;;;;26.83;17.20;;;5.00;99.90;;;;;;4938554;29;20229;-84
2022/12/02 11:02:56;;;;;;;26.17;16.50;;;5.00;99.90;;;;;;4940282;29;20174;-83
2022/12/02 11:05:25;;;;;;;29.00;17.33;;;5.00;99.90;;;;;;4924860;29;20179;-84
2022/12/02 11:07:59;;;;;;;29.67;17.40;;;5.00;99.90;;;;;;4944179;29;20179;-85
2022/12/02 11:10:37;;;;;;;27.40;16.03;;;5.10;99.90;;;;;;4942316;29;20176;-86
2022/12/02 11:13:05;;;;;;;28.37;17.27;;;5.00;99.90;;;;;;4939949;29;20208;-85
2022/12/02 11:15:36;;;;;;;28.23;17.60;;;5.10;99.90;;;;;;4938472;29;20600;-85
2022/12/02 11:18:03;;;;;;;30.03;16.40;;;5.00;99.90;;;;;;4938534;29;20172;-84
2022/12/02 11:20:45;;;;;;;28.33;17.60;;;5.10;99.90;;;;;;4938741;29;20251;-85
2022/12/02 11:23:25;;;;;;;26.77;16.83;;;5.00;99.90;;;;;;4938587;29;20176;-85
2022/12/02 11:25:59;;;;;;;27.77;17.37;;;5.00;99.90;;;;;;4938642;29;20183;-85
2022/12/02 11:28:28;;;;;;;28.53;17.27;;;5.00;99.90;;;;;;4946386;29;20167;-81
2022/12/02 11:31:21;;;;;;;29.40;17.37;;;5.00;99.90;;;;;;4954581;29;20174;-82
2022/12/02 11:33:47;;;;;;;29.17;16.23;;;5.00;99.90;;;;;;4940257;29;20224;-80
2022/12/02 11:36:22;;;;;;;28.50;16.93;;;5.00;99.90;;;;;;4926555;29;20326;-81
2022/12/02 11:38:50;;;;;;;27.60;15.90;;;5.00;99.90;;;;;;4942419;29;20183;-84
2022/12/02 11:41:28;;;;;;;28.23;16.53;;;5.00;99.90;;;;;;4938740;29;20180;-85
2022/12/02 11:44:08;;;;;;;24.70;15.73;;;5.10;99.90;;;;;;4941337;29;20179;-86
2022/12/02 11:46:48;;;;;;;28.07;16.27;;;5.00;99.90;;;;;;4929779;29;20211;-86
2022/12/02 11:49:33;;;;;;;28.20;16.10;;;5.10;99.90;;;;;;4942411;29;20196;-85
2022/12/02 11:52:25;;;;;;;24.53;15.23;;;5.10;99.90;;;;;;4941549;29;20243;-84
2022/12/02 11:54:59;;;;;;;27.17;16.13;;;5.20;99.90;;;;;;4939229;29;20677;-85
2022/12/02 11:57:40;;;;;;;28.47;16.07;;;5.30;99.90;;;;;;4938064;29;20215;-86
2022/12/02 12:00:31;;;;;;;28.90;16.20;;;5.50;99.90;;;;;;4937517;29;20228;-85
2022/12/02 12:03:09;;;;;;;23.70;15.93;;;5.60;99.90;;;;;;4944997;29;20168;-84
2022/12/02 12:05:35;;;;;;;25.87;15.30;;;5.70;99.90;;;;;;4921237;29;20271;-86
2022/12/02 12:08:01;;;;;;;30.70;18.47;;;5.90;99.90;;;;;;4937082;29;20542;-84
2022/12/02 12:10:39;;;;;;;26.87;17.50;;;5.80;99.90;;;;;;4920583;29;20250;-83
2022/12/02 12:13:14;;;;;;;28.07;16.67;;;5.70;99.90;;;;;;4939073;29;20271;-81
2022/12/02 12:15:59;;;;;;;25.97;16.30;;;5.60;99.90;;;;;;4939819;29;20234;-85
2022/12/02 12:18:38;;;;;;;24.93;15.23;;;5.50;99.90;;;;;;4940248;29;20543;-83
2022/12/02 12:21:05;;;;;;;24.37;15.77;;;5.40;99.90;;;;;;4951427;29;20711;-83
2022/12/02 12:23:44;;;;;;;28.97;17.07;;;5.40;99.90;;;;;;4952050;29;20177;-85
2022/12/02 12:26:31;;;;;;;25.63;15.53;;;5.40;99.90;;;;;;4939976;29;20179;-85
2022/12/02 12:29:02;;;;;;;26.70;15.80;;;5.40;99.90;;;;;;4939753;29;20203;-84
2022/12/02 12:31:28;;;;;;;23.97;14.63;;;5.40;99.90;;;;;;4937914;29;20176;-85
2022/12/02 12:33:54;;;;;;;25.57;15.53;;;5.40;99.90;;;;;;4920512;29;20263;-83
2022/12/02 12:36:20;;;;;;;24.50;15.53;;;5.40;99.90;;;;;;4937186;29;20195;-85
2022/12/02 12:38:46;;;;;;;25.03;15.80;;;5.40;99.90;;;;;;4920272;29;20246;-84
2022/12/02 12:41:11;;;;;;;24.23;16.40;;;5.30;99.90;;;;;;4923072;29;20536;-85
2022/12/02 12:43:37;;;;;;;25.03;15.47;;;5.20;99.90;;;;;;4939515;29;20191;-81
2022/12/02 12:46:03;;;;;;;24.37;15.03;;;5.20;99.90;;;;;;4938053;29;20183;-82
2022/12/02 12:48:29;;;;;;;21.57;14.93;;;5.30;99.90;;;;;;4942543;29;20512;-83
2022/12/02 12:50:55;;;;;;;23.20;14.90;;;5.20;99.90;;;;;;4938411;29;20297;-82